Toledo, Iowa
Current Conditions -  °F | °C
As of 5:53 AM on Monday 20 Oct 2014 (Local Time) from KMIW Reporting Station
Clear Clear  
Wind Chill:   Ceiling: Unl
Heat Index:   Visibility: 10mi
Dew Point:   Wind: 9mph
Humidity: 93%   Direction: 310°NW
Pressure: 29.95"   Gusts: NA
Location:  42°N, 92.58°W
Report Text: KMIW 201053Z AUTO 31008KT 10SM CLR 05/04 A2995 RMK AO2 SLP145 T00500039
Loading
Personal Weather Stations






























Interactive Weather Map
Tropical Storm Tracking
New forecast layout! Learn more

10-Day Weather Forecast

Advertisements
Track Severe Weather on mobile